Flight Track Log - Related Links

Times and Time Zones

All times are in EDT time to prevent confusion due to time zone crossing. See the CHH7066 flight status page for this flight to view local times or setup timezone preferences in your user account.

Time Position Orientation Groundspeed Altitude Reporting Facility
EDT Latitude Longitude Course Direction KTS MPH feet Rate Location/Type
Sat 03:42:20 AM 38.7162 121.3260 226° Southwest 381 438 21,700  Level FlightAware ADS-B (ZSQD / TAO)
Sat 03:42:51 AM 38.6594 121.2512 226° Southwest 382 440 21,700  Level FlightAware ADS-B (ZSQD / TAO)
Sat 03:43:17 AM 38.6445 121.2315 226° Southwest 382 440 21,700  Level FlightAware ADS-B (ZSQD / TAO)
Sat 03:43:52 AM 38.5856 121.1541 226° Southwest 381 438 21,700  Level FlightAware ADS-B (ZSQD / TAO)
Sat 03:44:22 AM 38.5487 121.1058 226° Southwest 381 438 21,700  Level FlightAware ADS-B (ZSQD / TAO)
Sat 03:44:51 AM 38.5126 121.0584 226° Southwest 382 440 21,700  Level FlightAware ADS-B (ZSQD / TAO)
Sat 03:45:21 AM 38.4746 121.0088 226° Southwest 381 438 21,700  Level FlightAware ADS-B (ZSQD / TAO)
Sat 03:45:51 AM 38.4373 120.9600 226° Southwest 381 438 21,700  Level FlightAware ADS-B (ZSQD / TAO)
Sat 03:46:21 AM 38.4003 120.9117 226° Southwest 382 440 21,700  Level FlightAware ADS-B (ZSQD / TAO)
Sat 03:46:52 AM 38.3638 120.8641 226° Southwest 381 438 21,700  Level FlightAware ADS-B (ZSQD / TAO)
Sat 03:47:08 AM 38.3470 120.8424 226° Southwest 381 438 21,700 536 Level FlightAware ADS-B (ZSQD / TAO)
Sat 03:47:48 AM 38.2937 120.7732 226° Southwest 383 441 22,200 740 Climbing FlightAware ADS-B (ZSQD / TAO)
Sat 03:48:21 AM 38.2496 120.7209 217° Southwest 388 447 22,600 774 Climbing FlightAware ADS-B (ZSQD / TAO)
Sat 03:48:50 AM 38.2073 120.6901 207° Southwest 394 453 23,000 787 Climbing FlightAware ADS-B (ZSQD / TAO)
Sat 03:49:22 AM 38.1540 120.6568 207° Southwest 397 457 23,400 507 Climbing FlightAware ADS-B (ZSQD / TAO)
Sat 03:50:01 AM 38.0872 120.6153 207° Southwest 398 458 23,600 174 Climbing FlightAware ADS-B (ZSQD / TAO)
Sat 03:50:31 AM 38.0375 120.5850 206° Southwest 397 457 23,600  Level FlightAware ADS-B (ZSQD / TAO)
Sat 03:51:11 AM 37.9729 120.5394 211° Southwest 395 455 23,600  Level FlightAware ADS-B (ZSQD / TAO)
Sat 03:51:46 AM 37.9203 120.5027 205° Southwest 396 456 23,600  Level FlightAware ADS-B (ZSQD / TAO)
Sat 03:52:16 AM 37.8670 120.4719 205° Southwest 396 456 23,600  Level FlightAware ADS-B (ZSQD / TAO)
Sat 03:52:46 AM 37.8506 120.4623 205° Southwest 396 456 23,600  Level FlightAware ADS-B (ZSQD / TAO)
Sat 03:53:11 AM 37.7772 120.4285 191° South 391 450 23,600  Level FlightAware ADS-B (ZSQD / TAO)
Sat 03:54:07 AM 37.6732 120.4183 184° South 388 447 23,600  Level FlightAware ADS-B (ZSQD / TAO)
Sat 03:54:46 AM 37.6025 120.4087 187° South 381 438 23,600  Level FlightAware ADS-B (ZSQD / TAO)
Sat 03:55:17 AM 37.5499 120.4010 187° South 380 437 23,600  Level FlightAware ADS-B (ZSQD / TAO)
Sat 03:55:47 AM 37.4983 120.3934 187° South 380 437 23,600  Level FlightAware ADS-B (ZSQD / TAO)
Sat 03:56:16 AM 37.4485 120.3863 187° South 380 437 23,600  Level FlightAware ADS-B (ZSQD / TAO)
Sat 03:56:47 AM 37.3931 120.3782 187° South 379 436 23,600  Level FlightAware ADS-B (ZSQD / TAO)
Sat 03:57:17 AM 37.3419 120.3708 187° South 380 437 23,600  Level FlightAware ADS-B (ZSQD / TAO)
Sat 03:57:46 AM 37.2895 120.3633 187° South 382 440 23,600  Level FlightAware ADS-B (ZSQD / TAO)
Sat 03:58:17 AM 37.2347 120.3553 187° South 382 440 23,600  Level FlightAware ADS-B (ZSQD / TAO)
Sat 03:58:51 AM 37.1747 120.3442 195° South 378 435 23,600  Level FlightAware ADS-B (ZSQD / TAO)
Sat 03:59:42 AM 37.0918 120.3071 201° Southwest 374 430 23,600 -525 Level FlightAware ADS-B (ZSQD / TAO)
Sat 04:00:11 AM 37.0437 120.2843 201° Southwest 370 426 22,900 -1,729 Descending FlightAware ADS-B (ZSQD / TAO)
Sat 04:00:41 AM 36.9958 120.2616 201° Southwest 364 419 21,900 -1,029 Descending FlightAware ADS-B (ZSQD / TAO)
Sat 04:01:21 AM 36.9331 120.2319 201° Southwest 364 419 21,700 -171 Descending FlightAware ADS-B (ZSQD / TAO)
Sat 04:01:51 AM 36.8871 120.2104 201° Southwest 364 419 21,700  Level FlightAware ADS-B (ZSQD / TAO)
Sat 04:02:22 AM 36.8379 120.1873 201° Southwest 364 419 21,700  Level FlightAware ADS-B (ZSQD / TAO)
Sat 04:02:52 AM 36.7905 120.1650 201° Southwest 364 419 21,700  Level FlightAware ADS-B (ZSQD / TAO)
Sat 04:03:21 AM 36.7432 120.1429 201° Southwest 362 417 21,700  Level FlightAware ADS-B (ZSQD / TAO)
Sat 04:03:51 AM 36.6965 120.1209 201° Southwest 363 418 21,700  Level FlightAware ADS-B (ZSQD / TAO)
Sat 04:04:22 AM 36.6484 120.0984 201° Southwest 363 418 21,700  Level FlightAware ADS-B (ZSQD / TAO)
Sat 04:04:51 AM 36.6020 120.0768 201° Southwest 365 420 21,700  Level FlightAware ADS-B (ZSQD / TAO)
Sat 04:05:22 AM 36.5535 120.0543 201° Southwest 365 420 21,700  Level FlightAware ADS-B (ZSQD / TAO)
Sat 04:05:52 AM 36.5065 120.0324 201° Southwest 365 420 21,700  Level FlightAware ADS-B (ZSQD / TAO)
Sat 04:06:21 AM 36.4595 120.0104 201° Southwest 366 421 21,700  Level FlightAware ADS-B (ZSQD / TAO)
Sat 04:06:52 AM 36.4118 119.9883 201° Southwest 366 421 21,700  Level FlightAware ADS-B (ZSQD / TAO)
Sat 04:07:21 AM 36.3640 119.9661 201° Southwest 366 421 21,700  Level FlightAware ADS-B (ZSQD / TAO)
Sat 04:07:51 AM 36.3159 119.9438 201° Southwest 367 422 21,700  Level FlightAware ADS-B (ZSQD / TAO)
Sat 04:08:21 AM 36.2683 119.9218 201° Southwest 366 421 21,700  Level FlightAware ADS-B (ZSQD / TAO)
Sat 04:08:52 AM 36.2203 119.8996 201° Southwest 367 422 21,700  Level FlightAware ADS-B (ZSQD / TAO)
Sat 04:09:22 AM 36.1727 119.8777 201° Southwest 367 422 21,700  Level FlightAware ADS-B (ZSQD / TAO)
Sat 04:09:51 AM 36.1241 119.8553 201° Southwest 373 429 21,700  Level FlightAware ADS-B (ZSQD / TAO)
Sat 04:10:22 AM 36.0758 119.8332 201° Southwest 374 430 21,700  Level FlightAware ADS-B (ZSQD / TAO)
Sat 04:10:52 AM 36.0280 119.8112 201° Southwest 374 430 21,700  Level FlightAware ADS-B (ZSQD / TAO)
Sat 04:11:22 AM 35.9784 119.7884 201° Southwest 374 430 21,700  Level FlightAware ADS-B (ZSQD / TAO)
Sat 04:11:51 AM 35.9298 119.7661 201° Southwest 374 430 21,700  Level FlightAware ADS-B (ZSQD / TAO)
Sat 04:12:21 AM 35.8806 119.7437 201° Southwest 375 432 21,700  Level FlightAware ADS-B (ZSQD / TAO)
Sat 04:12:51 AM 35.8331 119.7219 201° Southwest 370 426 21,700  Level FlightAware ADS-B (ZSQD / TAO)
Sat 04:13:21 AM 35.7847 119.6997 201° Southwest 362 417 21,700  Level FlightAware ADS-B (ZSQD / TAO)
Sat 04:13:51 AM 35.7372 119.6779 201° Southwest 362 417 21,700  Level FlightAware ADS-B (ZSQD / TAO)
Sat 04:14:21 AM 35.6903 119.6567 201° Southwest 361 415 21,700  Level FlightAware ADS-B (ZSQD / TAO)
Sat 04:14:52 AM 35.6432 119.6352 201° Southwest 361 415 21,700  Level FlightAware ADS-B (ZSQD / TAO)
Sat 04:15:21 AM 35.5958 119.6137 201° Southwest 360 414 21,700  Level FlightAware ADS-B (ZSQD / TAO)
Sat 04:15:51 AM 35.5537 119.5946 201° Southwest 360 414 21,700  Level FlightAware ADS-B (ZSQD / TAO)
Sat 04:16:21 AM 35.5028 119.5715 201° Southwest 363 418 21,700  Level FlightAware ADS-B (ZSQD / TAO)
Sat 04:16:51 AM 35.4704 119.5567 201° Southwest 385 443 21,700  Level FlightAware ADS-B (ZSQD / TAO)
Sat 04:17:21 AM 35.4027 119.5262 201° Southwest 385 443 21,700  Level FlightAware ADS-B (ZSQD / TAO)
Sat 04:17:51 AM 35.3524 119.5036 201° Southwest 384 442 21,700  Level FlightAware ADS-B (ZSQD / TAO)
Sat 04:18:21 AM 35.3030 119.4813 201° Southwest 385 443 21,700  Level FlightAware ADS-B (ZSQD / TAO)
Sat 04:18:34 AM 35.2905 119.4757 201° Southwest 385 443 21,700  Level FlightAware ADS-B (ZSQD / TAO)
Sat 04:21:00 AM 35.1599 119.1666 243° Southwest  Level Estimated
Sat 04:22:00 AM 35.1060 119.0398 243° Southwest  Level Estimated
Sat 04:23:00 AM 35.0520 118.9133 242° Southwest  Level Estimated
Sat 04:24:00 AM 34.9979 118.7868 242° Southwest  Level Estimated
Sat 04:25:00 AM 34.9436 118.6606 242° Southwest  Level Estimated
Sat 04:26:00 AM 34.8892 118.5345 242° Southwest  Level Estimated
Sat 04:27:00 AM 34.8347 118.4086 242° Southwest  Level Estimated
Sat 04:28:00 AM 34.7800 118.2829 242° Southwest  Level Estimated
Sat 04:29:00 AM 34.7253 118.1573 242° Southwest  Level Estimated
Sat 04:30:00 AM 34.6703 118.0319 242° Southwest  Level Estimated
Sat 04:31:00 AM 34.6153 117.9067 242° Southwest  Level Estimated
Sat 04:32:00 AM 34.5601 117.7816 242° Southwest  Level Estimated
Sat 04:33:00 AM 34.5048 117.6567 242° Southwest  Level Estimated
Sat 04:34:00 AM 34.4494 117.5320 242° Southwest  Level Estimated
Sat 04:35:00 AM 34.3938 117.4074 242° Southwest  Level Estimated

Login

Don't have an account? Register now (free) for customized features, flight alerts, and more!